createdAt,value
2019-05-29T00:02:20.297Z,2.60
2019-05-29T00:04:50.769Z,2.03
2019-05-29T00:07:20.945Z,1.80
2019-05-29T00:09:51.259Z,1.73
2019-05-29T00:12:22.315Z,1.90
2019-05-29T00:14:52.464Z,1.63
2019-05-29T00:17:22.818Z,1.60
2019-05-29T00:19:53.077Z,1.77
2019-05-29T00:22:23.248Z,1.97
2019-05-29T00:24:54.955Z,1.50
2019-05-29T00:27:25.311Z,1.53
2019-05-29T00:29:55.735Z,2.00
2019-05-29T00:32:25.956Z,1.57
2019-05-29T00:34:56.155Z,1.80
2019-05-29T00:37:26.799Z,1.60
2019-05-29T00:39:58.602Z,2.00
2019-05-29T00:42:29.837Z,1.70
2019-05-29T00:45:00.221Z,2.03
2019-05-29T00:47:30.555Z,1.50
2019-05-29T00:52:30.169Z,2.20
2019-05-29T00:57:29.569Z,2.05
2019-05-29T00:59:59.756Z,1.60
2019-05-29T01:02:30.318Z,1.50
2019-05-29T01:05:00.653Z,1.50
2019-05-29T01:07:33.539Z,1.80
2019-05-29T01:10:03.841Z,1.57
2019-05-29T01:12:34.072Z,1.30
2019-05-29T01:15:04.796Z,1.43
2019-05-29T01:17:38.223Z,1.97
2019-05-29T01:20:08.860Z,2.07
2019-05-29T01:22:39.305Z,1.77
2019-05-29T01:25:09.618Z,1.70
2019-05-29T01:27:39.853Z,1.70
2019-05-29T01:30:10.488Z,1.80
2019-05-29T01:32:41.040Z,1.40
2019-05-29T01:35:11.506Z,1.50
2019-05-29T01:37:41.841Z,1.43
2019-05-29T01:40:20.094Z,1.60
2019-05-29T01:42:44.850Z,1.40
2019-05-29T01:45:15.508Z,1.20
2019-05-29T01:47:45.949Z,1.60
2019-05-29T01:50:17.691Z,1.10
2019-05-29T01:52:47.901Z,1.63
2019-05-29T01:55:18.196Z,1.00
2019-05-29T01:57:48.377Z,1.20
2019-05-29T02:00:20.129Z,1.10
2019-05-29T02:02:50.380Z,1.10
2019-05-29T02:05:21.912Z,1.17
2019-05-29T02:07:52.691Z,1.40
2019-05-29T02:10:26.307Z,1.45
2019-05-29T02:12:56.738Z,1.10
2019-05-29T02:20:34.626Z,1.17
2019-05-29T02:23:05.522Z,1.20
2019-05-29T02:25:36.456Z,1.25
2019-05-29T02:28:06.887Z,1.20
2019-05-29T02:30:37.105Z,1.30
2019-05-29T02:33:07.313Z,1.07
2019-05-29T02:35:37.723Z,1.40
2019-05-29T02:38:07.832Z,1.07
2019-05-29T02:40:38.186Z,1.30
2019-05-29T02:43:08.422Z,1.50
2019-05-29T02:45:53.954Z,1.17
2019-05-29T02:48:10.533Z,1.10
2019-05-29T02:50:40.871Z,1.33
2019-05-29T02:53:11.244Z,1.10
2019-05-29T02:55:41.421Z,1.40
2019-05-29T02:58:11.899Z,1.80
2019-05-29T03:00:54.143Z,1.43
2019-05-29T03:03:26.548Z,1.40
2019-05-29T03:05:57.455Z,1.30
2019-05-29T03:08:31.166Z,1.57
2019-05-29T03:10:59.704Z,1.90
2019-05-29T03:13:31.601Z,1.20
2019-05-29T03:16:10.426Z,1.50
2019-05-29T03:18:35.022Z,1.40
2019-05-29T03:21:05.459Z,1.30
2019-05-29T03:23:36.493Z,1.30
2019-05-29T03:26:06.917Z,1.20
2019-05-29T03:28:38.329Z,1.30
2019-05-29T03:31:09.213Z,1.50
2019-05-29T03:33:48.299Z,1.93
2019-05-29T03:36:11.437Z,1.60
2019-05-29T03:38:41.719Z,1.63
2019-05-29T03:41:12.166Z,1.23
2019-05-29T03:43:42.391Z,1.33
2019-05-29T03:46:29.013Z,1.20
2019-05-29T03:48:44.684Z,1.57
2019-05-29T03:51:14.885Z,1.53
2019-05-29T03:53:45.205Z,1.50
2019-05-29T03:56:15.474Z,1.50
2019-05-29T03:58:45.942Z,25.63
2019-05-29T04:01:16.485Z,1.40
2019-05-29T04:03:46.879Z,1.20
2019-05-29T04:06:17.132Z,1.40
2019-05-29T04:08:47.809Z,1.60
2019-05-29T04:11:19.605Z,1.60
2019-05-29T04:13:50.326Z,1.60
2019-05-29T04:16:21.744Z,1.40
2019-05-29T04:18:52.303Z,1.30
2019-05-29T04:21:23.833Z,2.10
2019-05-29T04:23:55.188Z,47.50
2019-05-29T04:26:27.945Z,3.37
2019-05-29T04:28:58.768Z,2.67
2019-05-29T04:31:29.971Z,3.50
2019-05-29T04:34:00.577Z,1.90
2019-05-29T04:36:32.847Z,2.60
2019-05-29T04:39:03.069Z,5.43
2019-05-29T04:41:34.654Z,5.80
2019-05-29T04:44:06.105Z,4.30
2019-05-29T04:46:38.338Z,3.70
2019-05-29T04:49:11.755Z,3.20
2019-05-29T04:51:42.080Z,5.10
2019-05-29T04:54:12.368Z,5.43
2019-05-29T04:56:42.618Z,6.53
2019-05-29T04:59:12.794Z,8.03
2019-05-29T05:01:43.157Z,7.70
2019-05-29T05:04:13.821Z,15.23
2019-05-29T05:06:44.217Z,10.93
2019-05-29T05:09:14.635Z,14.67
2019-05-29T05:11:45.488Z,15.33
2019-05-29T05:14:17.459Z,16.33
2019-05-29T05:16:48.546Z,14.20
2019-05-29T05:19:18.862Z,15.70
2019-05-29T05:21:49.240Z,17.23
2019-05-29T05:24:19.583Z,16.60
2019-05-29T05:26:49.847Z,29.27
2019-05-29T05:29:20.068Z,17.50
2019-05-29T05:31:51.466Z,18.30
2019-05-29T05:34:21.907Z,18.03
2019-05-29T05:36:55.335Z,18.00
2019-05-29T05:39:25.651Z,20.00
2019-05-29T05:41:58.892Z,23.17
2019-05-29T05:44:29.126Z,16.37
2019-05-29T05:46:59.941Z,16.43
2019-05-29T05:49:31.225Z,16.67
2019-05-29T05:52:02.784Z,14.63
2019-05-29T05:54:33.431Z,15.30
2019-05-29T05:57:03.996Z,14.87
2019-05-29T05:59:35.769Z,16.03
2019-05-29T06:02:06.075Z,15.73
2019-05-29T06:04:36.385Z,15.30
2019-05-29T06:07:06.575Z,16.23
2019-05-29T06:09:38.145Z,16.63
2019-05-29T06:12:08.669Z,15.43
2019-05-29T06:14:40.561Z,15.73
2019-05-29T06:17:12.079Z,22.17
2019-05-29T06:19:43.119Z,40.23
2019-05-29T06:22:13.307Z,49.83
2019-05-29T06:24:43.791Z,23.00
2019-05-29T06:27:14.431Z,21.30
2019-05-29T06:29:44.856Z,32.33
2019-05-29T06:32:15.142Z,39.93
2019-05-29T06:34:45.637Z,26.40
2019-05-29T06:37:16.180Z,32.90
2019-05-29T06:39:46.777Z,19.80
2019-05-29T06:42:17.006Z,20.97
2019-05-29T06:44:49.009Z,19.30
2019-05-29T06:47:19.171Z,20.67
2019-05-29T06:49:49.506Z,19.17
2019-05-29T06:52:19.793Z,18.33
2019-05-29T06:54:50.160Z,16.70
2019-05-29T06:57:20.331Z,17.65
2019-05-29T06:59:50.620Z,17.80
2019-05-29T07:02:21.306Z,18.47
2019-05-29T07:04:51.560Z,18.40
2019-05-29T07:07:21.741Z,17.40
2019-05-29T07:09:51.948Z,17.17
2019-05-29T07:12:22.202Z,17.33
2019-05-29T07:14:52.653Z,16.40
2019-05-29T07:17:22.981Z,19.43
2019-05-29T07:20:02.938Z,16.10
2019-05-29T07:22:25.884Z,16.87
2019-05-29T07:24:56.120Z,18.70
2019-05-29T07:27:26.339Z,16.53
2019-05-29T07:29:56.652Z,18.48
2019-05-29T07:32:27.007Z,16.87
2019-05-29T07:35:03.526Z,15.50
2019-05-29T07:37:29.252Z,14.53
2019-05-29T07:39:59.423Z,15.90
2019-05-29T07:42:30.177Z,15.10
2019-05-29T07:45:00.503Z,15.10
2019-05-29T07:47:30.890Z,15.70
2019-05-29T07:50:01.257Z,15.90
2019-05-29T07:52:33.251Z,15.10
2019-05-29T07:55:03.562Z,22.97
2019-05-29T07:57:33.925Z,12.73
2019-05-29T08:00:04.676Z,12.50
2019-05-29T08:02:35.170Z,13.30
2019-05-29T08:05:06.966Z,10.77
2019-05-29T08:07:37.152Z,11.20
2019-05-29T08:10:07.876Z,13.03
2019-05-29T08:12:43.926Z,11.73
2019-05-29T08:15:10.190Z,11.40
2019-05-29T08:17:42.073Z,10.90
2019-05-29T08:20:13.990Z,9.87
2019-05-29T08:22:44.535Z,10.47
2019-05-29T08:25:14.897Z,10.27
2019-05-29T08:27:46.670Z,9.97
2019-05-29T08:30:17.129Z,10.50
2019-05-29T08:32:49.102Z,10.10
2019-05-29T08:35:19.359Z,9.27
2019-05-29T08:37:49.734Z,7.87
2019-05-29T08:40:20.346Z,7.87
2019-05-29T08:42:51.495Z,8.33
2019-05-29T08:45:24.933Z,8.17
2019-05-29T08:47:55.338Z,9.07
2019-05-29T08:50:25.567Z,8.03
2019-05-29T08:52:55.835Z,9.30
2019-05-29T08:55:27.559Z,14.77
2019-05-29T08:57:57.945Z,8.57
2019-05-29T09:00:28.818Z,8.83
2019-05-29T09:02:59.126Z,9.97
2019-05-29T09:05:29.679Z,10.07
2019-05-29T09:07:59.960Z,8.17
2019-05-29T09:10:32.024Z,7.27
2019-05-29T09:13:05.041Z,6.60
2019-05-29T09:15:34.425Z,7.00
2019-05-29T09:18:07.418Z,5.87
2019-05-29T09:21:01.117Z,6.00
2019-05-29T09:23:09.671Z,5.10
2019-05-29T09:25:39.907Z,5.20
2019-05-29T09:28:18.406Z,5.50
2019-05-29T09:30:48.211Z,5.73
2019-05-29T09:33:21.368Z,4.50
2019-05-29T09:35:50.941Z,4.50
2019-05-29T09:38:22.924Z,4.33
2019-05-29T09:40:54.782Z,4.50
2019-05-29T09:43:29.751Z,4.03
2019-05-29T09:45:57.313Z,4.03
2019-05-29T09:48:48.545Z,3.20
2019-05-29T09:51:20.780Z,3.47
2019-05-29T09:53:40.842Z,5.03
2019-05-29T09:56:11.240Z,7.60
2019-05-29T09:58:41.694Z,3.40
2019-05-29T10:01:22.674Z,3.00
2019-05-29T10:03:44.867Z,2.93
2019-05-29T10:06:15.209Z,2.90
2019-05-29T10:08:45.599Z,2.50
2019-05-29T10:11:16.186Z,2.80
2019-05-29T10:13:46.893Z,2.20
2019-05-29T10:16:17.378Z,2.20
2019-05-29T10:18:48.272Z,2.60
2019-05-29T10:21:18.963Z,2.57
2019-05-29T10:23:50.132Z,2.47
2019-05-29T10:26:20.624Z,2.80
2019-05-29T10:31:24.177Z,2.40
2019-05-29T10:33:55.006Z,2.80
2019-05-29T10:34:38.778Z,2.90
2019-05-29T10:36:25.655Z,3.20
2019-05-29T10:38:56.756Z,2.47
2019-05-29T10:41:27.487Z,2.67
2019-05-29T10:43:58.122Z,2.33
2019-05-29T10:46:28.545Z,2.10
2019-05-29T10:48:59.277Z,2.20
2019-05-29T10:51:33.182Z,2.40
2019-05-29T10:54:03.765Z,2.13
2019-05-29T10:56:34.613Z,1.80
2019-05-29T10:59:05.164Z,2.13
2019-05-29T11:01:36.044Z,2.17
2019-05-29T11:04:07.378Z,2.00
2019-05-29T11:06:40.824Z,2.60
2019-05-29T11:09:17.180Z,2.73
2019-05-29T11:11:48.430Z,2.40
2019-05-29T11:14:18.858Z,2.50
2019-05-29T11:16:53.080Z,2.60
2019-05-29T11:19:27.890Z,2.97
2019-05-29T11:22:01.702Z,3.40
2019-05-29T11:24:30.302Z,3.20
2019-05-29T11:27:01.541Z,3.80
2019-05-29T11:29:32.804Z,3.50
2019-05-29T11:32:03.163Z,3.33
2019-05-29T11:34:33.257Z,2.70
2019-05-29T11:37:03.387Z,3.23
2019-05-29T11:39:33.689Z,2.70
2019-05-29T11:42:04.255Z,2.63
2019-05-29T11:44:34.598Z,2.47
2019-05-29T11:47:04.887Z,2.30
2019-05-29T11:49:38.289Z,2.20
2019-05-29T11:52:23.582Z,2.20
2019-05-29T11:54:40.298Z,1.67
2019-05-29T11:57:10.351Z,2.00
2019-05-29T11:59:42.255Z,1.87
2019-05-29T12:02:12.994Z,2.00
2019-05-29T12:04:43.243Z,1.57
2019-05-29T12:07:13.581Z,1.53
2019-05-29T12:09:44.308Z,1.80
2019-05-29T12:12:14.721Z,1.70
2019-05-29T12:14:58.831Z,1.63
2019-05-29T12:17:17.498Z,1.80
2019-05-29T12:19:49.653Z,1.70
2019-05-29T12:22:21.115Z,1.80
2019-05-29T12:24:52.498Z,1.73
2019-05-29T12:27:22.856Z,1.80
2019-05-29T12:29:53.187Z,1.30
2019-05-29T12:32:23.939Z,1.43
2019-05-29T12:34:55.748Z,1.70
2019-05-29T12:37:27.043Z,1.23
2019-05-29T12:39:58.229Z,1.40
2019-05-29T12:42:30.575Z,1.12
2019-05-29T12:45:02.009Z,1.40
2019-05-29T12:47:33.108Z,1.27
2019-05-29T12:50:05.999Z,3.10
2019-05-29T12:52:36.809Z,1.50
2019-05-29T12:55:07.766Z,1.37
2019-05-29T12:57:38.506Z,2.43
2019-05-29T13:00:10.321Z,1.90
2019-05-29T13:02:41.052Z,1.90
2019-05-29T13:05:20.077Z,2.37
2019-05-29T13:07:47.123Z,2.00
2019-05-29T13:10:29.848Z,1.83
2019-05-29T13:12:51.349Z,1.97
2019-05-29T13:15:22.518Z,2.40
2019-05-29T13:17:59.763Z,1.97
2019-05-29T13:20:26.145Z,1.20
2019-05-29T13:22:57.656Z,1.40
2019-05-29T13:25:28.618Z,1.63
2019-05-29T13:27:59.957Z,1.50
2019-05-29T13:30:31.197Z,1.20
2019-05-29T13:33:03.562Z,1.30
2019-05-29T13:35:34.213Z,1.93
2019-05-29T13:38:05.309Z,1.30
2019-05-29T13:40:35.787Z,1.30
2019-05-29T13:43:14.705Z,1.60
2019-05-29T13:45:38.927Z,1.30
2019-05-29T13:48:10.693Z,1.60
2019-05-29T13:50:42.190Z,1.62
2019-05-29T13:53:12.732Z,1.50
2019-05-29T13:55:43.417Z,1.50
2019-05-29T13:58:14.145Z,1.60
2019-05-29T14:00:45.134Z,1.20
2019-05-29T14:03:15.995Z,1.77
2019-05-29T14:05:46.469Z,1.10
2019-05-29T14:08:17.055Z,1.23
2019-05-29T14:10:47.769Z,1.23
2019-05-29T14:13:18.673Z,1.17
2019-05-29T14:15:52.204Z,1.30
2019-05-29T14:18:22.884Z,1.13
2019-05-29T14:20:53.568Z,1.17
2019-05-29T14:23:24.397Z,1.40
2019-05-29T14:25:54.773Z,2.23
2019-05-29T14:28:25.607Z,1.23
2019-05-29T14:30:56.243Z,2.10
2019-05-29T14:33:27.616Z,1.50
2019-05-29T14:35:58.191Z,1.33
2019-05-29T14:38:28.558Z,1.00
2019-05-29T14:40:58.951Z,1.03
2019-05-29T14:43:29.324Z,0.90
2019-05-29T14:45:59.478Z,0.70
2019-05-29T14:48:30.177Z,1.10
2019-05-29T14:51:04.865Z,0.90
2019-05-29T14:53:35.561Z,1.10
2019-05-29T14:56:06.614Z,0.90
2019-05-29T14:58:36.896Z,1.10
2019-05-29T15:01:11.244Z,1.20
2019-05-29T15:03:41.645Z,1.73
2019-05-29T15:06:12.228Z,1.10
2019-05-29T15:08:44.468Z,1.10
2019-05-29T15:11:14.944Z,1.57
2019-05-29T15:13:45.120Z,1.80
2019-05-29T15:16:15.587Z,1.73
2019-05-29T15:18:46.065Z,1.82
2019-05-29T15:21:16.559Z,1.30
2019-05-29T15:23:47.798Z,1.47
2019-05-29T15:26:18.078Z,1.40
2019-05-29T15:28:50.980Z,1.50
2019-05-29T15:31:21.463Z,1.60
2019-05-29T15:33:52.226Z,1.43
2019-05-29T15:36:22.577Z,1.70
2019-05-29T15:38:52.990Z,1.60
2019-05-29T15:41:23.274Z,1.70
2019-05-29T15:43:53.551Z,1.50
2019-05-29T15:46:23.841Z,1.43
2019-05-29T15:48:53.981Z,1.50
2019-05-29T15:51:24.295Z,1.23
2019-05-29T15:53:54.900Z,1.20
2019-05-29T15:56:27.774Z,1.13
2019-05-29T15:58:57.266Z,1.07
2019-05-29T16:01:27.498Z,1.07
2019-05-29T16:03:57.867Z,1.57
2019-05-29T16:06:28.271Z,1.10
2019-05-29T16:08:59.077Z,1.27
2019-05-29T16:11:29.505Z,1.67
2019-05-29T16:13:59.788Z,1.60
2019-05-29T16:16:30.123Z,1.40
2019-05-29T16:19:03.222Z,1.43
2019-05-29T16:21:34.894Z,1.33
2019-05-29T16:24:05.422Z,1.20
2019-05-29T16:26:35.919Z,1.60
2019-05-29T16:29:06.403Z,1.37
2019-05-29T16:31:36.898Z,1.00
2019-05-29T16:34:07.327Z,1.70
2019-05-29T16:36:37.967Z,1.43
2019-05-29T16:39:09.062Z,1.40
2019-05-29T16:41:39.556Z,1.43
2019-05-29T16:44:14.089Z,1.05
2019-05-29T16:46:44.682Z,1.30
2019-05-29T16:49:15.175Z,1.27
2019-05-29T16:51:46.172Z,1.50
2019-05-29T16:54:17.353Z,1.17
2019-05-29T16:56:47.743Z,1.50
2019-05-29T16:59:19.211Z,0.90
2019-05-29T17:01:49.850Z,1.27
2019-05-29T17:04:20.275Z,1.27
2019-05-29T17:06:50.562Z,0.90
2019-05-29T17:09:20.763Z,1.10
2019-05-29T17:11:50.952Z,1.10
2019-05-29T17:14:22.728Z,1.27
2019-05-29T17:16:53.079Z,0.77
2019-05-29T17:19:23.321Z,1.10
2019-05-29T17:21:55.064Z,1.10
2019-05-29T17:24:25.597Z,0.90
2019-05-29T17:26:58.348Z,1.07
2019-05-29T17:29:28.905Z,1.20
2019-05-29T17:32:02.335Z,1.20
2019-05-29T17:34:33.956Z,0.90
2019-05-29T17:37:08.005Z,1.30
2019-05-29T17:39:38.613Z,1.07
2019-05-29T17:42:10.639Z,0.97
2019-05-29T17:44:41.318Z,2.60
2019-05-29T17:47:12.190Z,1.20
2019-05-29T17:49:43.113Z,1.27
2019-05-29T17:52:13.730Z,1.77
2019-05-29T17:54:44.502Z,1.00
2019-05-29T17:57:16.622Z,1.20
2019-05-29T17:59:47.257Z,1.10
2019-05-29T18:02:22.170Z,1.00
2019-05-29T18:04:53.158Z,1.15
2019-05-29T18:07:24.796Z,1.50
2019-05-29T18:09:58.735Z,1.10
2019-05-29T18:12:30.090Z,0.90
2019-05-29T18:15:00.763Z,1.00
2019-05-29T18:17:31.568Z,1.20
2019-05-29T18:20:02.347Z,1.63
2019-05-29T18:22:33.204Z,1.80
2019-05-29T18:25:05.144Z,1.43
2019-05-29T18:27:36.391Z,1.30
2019-05-29T18:30:07.126Z,1.20
2019-05-29T18:32:38.592Z,1.57
2019-05-29T18:35:09.538Z,1.30
2019-05-29T18:37:40.375Z,1.70
2019-05-29T18:40:12.840Z,1.27
2019-05-29T18:42:44.509Z,1.57
2019-05-29T18:45:20.886Z,1.50
2019-05-29T18:47:49.044Z,1.57
2019-05-29T18:50:21.917Z,2.27
2019-05-29T18:52:55.329Z,1.70
2019-05-29T18:55:26.989Z,1.40
2019-05-29T18:57:57.737Z,1.50
2019-05-29T19:00:29.680Z,1.30
2019-05-29T19:03:00.254Z,1.20
2019-05-29T19:05:31.814Z,1.90
2019-05-29T19:08:02.920Z,2.00
2019-05-29T19:10:34.753Z,1.70
2019-05-29T19:13:06.511Z,1.60
2019-05-29T19:15:37.755Z,1.97
2019-05-29T19:18:08.945Z,1.70
2019-05-29T19:20:40.223Z,1.65
2019-05-29T19:23:10.751Z,1.20
2019-05-29T19:25:42.789Z,1.87
2019-05-29T19:28:13.892Z,1.50
2019-05-29T19:30:44.465Z,1.80
2019-05-29T19:33:15.114Z,2.30
2019-05-29T19:35:46.131Z,2.57
2019-05-29T19:38:18.133Z,1.70
2019-05-29T19:40:50.380Z,2.10
2019-05-29T19:43:24.160Z,1.67
2019-05-29T19:45:55.649Z,2.17
2019-05-29T19:48:26.910Z,2.03
2019-05-29T19:50:57.747Z,2.47
2019-05-29T19:53:31.996Z,2.23
2019-05-29T19:56:03.425Z,2.43
2019-05-29T19:58:34.558Z,2.17
2019-05-29T20:01:06.139Z,1.87
2019-05-29T20:03:38.166Z,2.07
2019-05-29T20:06:09.662Z,1.90
2019-05-29T20:08:40.425Z,2.70
2019-05-29T20:11:14.266Z,2.23
2019-05-29T20:13:45.837Z,24.00
2019-05-29T20:16:17.667Z,1.98
2019-05-29T20:18:49.490Z,1.90
2019-05-29T20:21:20.768Z,2.80
2019-05-29T20:23:52.101Z,1.60
2019-05-29T20:26:25.543Z,2.20
2019-05-29T20:28:57.014Z,2.20
2019-05-29T20:31:28.769Z,2.23
2019-05-29T20:33:59.657Z,2.00
2019-05-29T20:36:33.547Z,1.90
2019-05-29T20:39:04.462Z,1.97
2019-05-29T20:41:42.896Z,2.30
2019-05-29T20:44:11.511Z,2.07
2019-05-29T20:46:42.809Z,1.83
2019-05-29T20:49:13.926Z,1.93
2019-05-29T20:51:45.459Z,1.43
2019-05-29T20:54:17.348Z,1.90
2019-05-29T20:56:49.016Z,1.73
2019-05-29T20:59:19.993Z,1.73
2019-05-29T21:01:51.047Z,2.30
2019-05-29T21:04:22.345Z,2.00
2019-05-29T21:06:53.073Z,1.90
2019-05-29T21:09:24.500Z,1.80
2019-05-29T21:11:55.864Z,1.90
2019-05-29T21:14:27.431Z,1.50
2019-05-29T21:16:58.635Z,2.00
2019-05-29T21:19:29.565Z,2.40
2019-05-29T21:22:00.822Z,15.57
2019-05-29T21:24:34.552Z,1.70
2019-05-29T21:27:08.156Z,1.80
2019-05-29T21:29:41.238Z,1.70
2019-05-29T21:32:13.720Z,15.17
2019-05-29T21:34:44.584Z,3.57
2019-05-29T21:37:15.426Z,1.90
2019-05-29T21:39:46.631Z,2.03
2019-05-29T21:42:17.908Z,1.70
2019-05-29T21:44:48.418Z,2.22
2019-05-29T21:47:21.601Z,1.90
2019-05-29T21:49:52.379Z,1.90
2019-05-29T21:52:22.753Z,1.60
2019-05-29T21:54:53.129Z,2.00
2019-05-29T21:57:23.396Z,2.00
2019-05-29T21:59:54.183Z,1.70
2019-05-29T22:02:24.627Z,1.80
2019-05-29T22:04:54.829Z,2.30
2019-05-29T22:07:25.074Z,1.97
2019-05-29T22:09:56.566Z,2.77
2019-05-29T22:12:26.922Z,2.50
2019-05-29T22:14:58.942Z,2.20
2019-05-29T22:17:30.939Z,2.40
2019-05-29T22:20:01.621Z,2.27
2019-05-29T22:22:33.302Z,2.40
2019-05-29T22:25:04.657Z,1.63
2019-05-29T22:27:34.997Z,2.43
2019-05-29T22:30:08.414Z,2.53
2019-05-29T22:32:38.754Z,2.20
2019-05-29T22:35:09.939Z,2.23
2019-05-29T22:37:40.146Z,2.37
2019-05-29T22:46:35.196Z,2.20
2019-05-29T22:49:14.002Z,1.73
2019-05-29T22:51:44.380Z,1.80
2019-05-29T22:54:14.880Z,2.20
2019-05-29T22:56:45.623Z,1.87
2019-05-29T22:59:31.170Z,2.13
2019-05-29T23:01:47.983Z,1.80
2019-05-29T23:04:18.391Z,1.80
2019-05-29T23:06:48.593Z,2.30
2019-05-29T23:09:18.876Z,2.20
2019-05-29T23:11:50.153Z,2.00
2019-05-29T23:14:20.348Z,2.22
2019-05-29T23:16:50.632Z,2.17
2019-05-29T23:19:21.271Z,2.40
2019-05-29T23:21:52.386Z,2.70
2019-05-29T23:24:22.728Z,2.17
2019-05-29T23:26:53.101Z,2.27
2019-05-29T23:29:23.373Z,2.50
2019-05-29T23:31:54.688Z,2.17
2019-05-29T23:34:25.273Z,2.33
2019-05-29T23:36:57.037Z,2.43
2019-05-29T23:39:27.752Z,1.77
2019-05-29T23:41:59.310Z,2.30
2019-05-29T23:54:11.474Z,2.10
2019-05-29T23:56:41.663Z,3.00
2019-05-29T23:59:12.044Z,2.05
